Impacts METAR Board
IDs:

KBWI - Baltimore-Washington, MD, US

Updated at: 0300 UTC 23 Oct 2018
Potential Impact None Slight Moderate High
Time 22/15Z 22/16Z 22/17Z 22/18Z 22/19Z 22/20Z 22/21Z 22/22Z 22/23Z 23/00Z 23/01Z 23/02Z 23/03Z
Temp49 53 53 55 56 56 55 53 51 50 49 48 47
Dewpt32 34 32 33 33 33 35 36 37 37 38 39 40
Altim30.31 30.29 30.26 30.23 30.19 30.17 30.16 30.16 30.16 30.16 30.16 30.15 30.15
VIS10 10 10 10 10 10 10 10 10 10 10 10 10
CIG-- -- -- -- 250 250 250 250 250 250 140 250 250
CoverFEWSCTFEWSCTBKNBKNBKNBKNBKNBKNBKNBKNBKN
FltCatVFRVFRVFRVFRVFRVFRVFRVFRVFRVFRVFRVFRVFR
WX--------------------------
WDir200200200200210220220220190002100
WSpd5 6 8 9 7 11 7 5 3 0 0 3 0
WGst-- -- -- -- 15 16 -- -- -- -- -- -- --
Raw hourly METARs
KBWI 221454Z 20005KT 10SM FEW120 FEW200 09/00 A3031 RMK AO2 SLP264 T00940000 58001
KBWI 221554Z 20006KT 10SM FEW120 SCT200 12/01 A3029 RMK AO2 SLP259 T01170011
KBWI 221654Z 20008KT 170V230 10SM FEW200 12/00 A3026 RMK AO2 SLP247 T01170000
KBWI 221754Z 20009KT 10SM FEW120 FEW200 SCT250 13/01 A3023 RMK AO2 SLP236 T01280006 10133 20017 58028
KBWI 221854Z 21007G15KT 10SM FEW200 BKN250 13/01 A3019 RMK AO2 SLP223 T01330006
KBWI 221954Z 22011G16KT 10SM FEW085 FEW200 BKN250 13/01 A3017 RMK AO2 SLP218 T01330006
KBWI 222054Z 22007KT 190V250 10SM FEW085 FEW200 BKN250 13/02 A3016 RMK AO2 SLP215 T01280017 56021
KBWI 222154Z 22005KT 10SM FEW140 FEW200 BKN250 12/02 A3016 RMK AO2 SLP214 T01170022
KBWI 222254Z 19003KT 10SM SCT140 BKN250 11/03 A3016 RMK AO2 SLP214 T01060028
KBWI 222354Z 00000KT 10SM SCT140 BKN250 10/03 A3016 RMK AO2 SLP215 T01000028 10139 20100 55000
KBWI 230054Z COR 00000KT 10SM BKN140 BKN250 09/03 A3016 RMK AO2 SLP213 T00940033
KBWI 230154Z 21003KT 10SM SCT140 BKN250 09/04 A3015 RMK AO2 SLP211 T00890039
KBWI 230254Z 00000KT 10SM SCT140 BKN250 08/04 A3015 RMK AO2 SLP210 T00830044 57005



Page loaded:  03:25 UTC  |   08:25 PM Pacific  |   09:25 PM Mountain  |   10:25 PM Central  |   11:25 PM Eastern

 

ADVISORIES

FORECASTS

FORECASTS

OBSERVATIONS

USER TOOLS

ABOUT US